Time;durP1;ratioP1;P1;durP2;ratioP2;P2;SDS_P1;SDS_P2;PMS_P1;PMS_P2;Temp;Humidity;BMP_temperature;BMP_pressure;BME280_temperature;BME280_humidity;BME280_pressure;Samples;Min_cycle;Max_cycle;Signal;HPM_P1;HPM_P2
2023/12/15 00:03:27;;;;;;;3.03;2.20;;;9.30;47.00;;;;;;10438258;28;20327;-79
2023/12/15 00:08:30;;;;;;;2.60;2.30;;;9.30;46.90;;;;;;10444401;28;20237;-78
2023/12/15 00:13:35;;;;;;;2.33;2.13;;;9.30;46.60;;;;;;10445257;28;20229;-79
2023/12/15 00:18:38;;;;;;;2.50;2.30;;;9.30;46.60;;;;;;10445088;28;20239;-78
2023/12/15 00:23:41;;;;;;;2.20;2.10;;;9.40;46.70;;;;;;10445807;28;20263;-79
2023/12/15 00:28:46;;;;;;;2.03;1.93;;;9.40;46.60;;;;;;10445046;28;20320;-79
2023/12/15 00:33:50;;;;;;;2.27;2.17;;;9.40;46.30;;;;;;10442307;28;20725;-81
2023/12/15 00:38:53;;;;;;;2.40;2.30;;;9.30;46.20;;;;;;10402918;28;20249;-79
2023/12/15 00:43:58;;;;;;;2.33;2.23;;;9.30;46.20;;;;;;10405148;28;20841;-79
2023/12/15 00:49:01;;;;;;;2.60;2.40;;;9.30;46.20;;;;;;10441656;28;20237;-78
2023/12/15 00:54:05;;;;;;;2.40;2.30;;;9.20;46.10;;;;;;10441577;28;20232;-80
2023/12/15 00:59:09;;;;;;;2.37;2.20;;;9.20;46.10;;;;;;10441302;28;20241;-78
2023/12/15 01:04:13;;;;;;;2.70;2.50;;;9.20;46.10;;;;;;10441963;28;20782;-78
2023/12/15 01:09:16;;;;;;;2.97;2.60;;;9.20;46.10;;;;;;10440964;28;20793;-79
2023/12/15 01:14:20;;;;;;;3.10;2.90;;;9.10;46.10;;;;;;10440589;28;20255;-78
2023/12/15 01:19:24;;;;;;;3.20;3.00;;;9.10;46.10;;;;;;10441573;28;20581;-79
2023/12/15 01:24:27;;;;;;;3.00;2.80;;;9.10;46.10;;;;;;10439975;28;20239;-78
2023/12/15 01:29:32;;;;;;;2.73;2.57;;;9.00;46.00;;;;;;10439262;28;20641;-78
2023/12/15 01:34:35;;;;;;;2.63;2.53;;;9.00;46.20;;;;;;10439784;28;20306;-77
2023/12/15 01:39:38;;;;;;;2.70;2.50;;;8.90;46.10;;;;;;10442026;28;20237;-78
2023/12/15 01:44:43;;;;;;;2.80;2.60;;;8.90;46.00;;;;;;10399982;28;20320;-79
2023/12/15 01:49:47;;;;;;;2.27;2.17;;;8.90;45.90;;;;;;10399245;28;20237;-79
2023/12/15 01:54:51;;;;;;;2.60;2.40;;;8.80;46.50;;;;;;10417652;28;20265;-78
2023/12/15 01:59:55;;;;;;;2.80;2.60;;;8.80;45.90;;;;;;10441404;28;21117;-78
2023/12/15 02:04:58;;;;;;;2.80;2.60;;;8.70;45.80;;;;;;10439852;28;20814;-78
2023/12/15 02:10:03;;;;;;;2.67;2.47;;;8.70;45.90;;;;;;10441182;28;20257;-80
2023/12/15 02:15:10;;;;;;;2.50;2.40;;;8.60;46.00;;;;;;10441333;28;20233;-79
2023/12/15 02:20:13;;;;;;;2.67;2.47;;;8.60;46.10;;;;;;10440293;28;20260;-79
2023/12/15 02:25:18;;;;;;;2.80;2.60;;;8.60;46.00;;;;;;10440136;28;20287;-80
2023/12/15 02:30:21;;;;;;;2.60;2.40;;;8.60;45.70;;;;;;10439328;28;20229;-78
2023/12/15 02:35:24;;;;;;;2.50;2.40;;;8.60;45.80;;;;;;10440178;28;20241;-78
2023/12/15 02:40:29;;;;;;;2.70;2.50;;;8.60;45.80;;;;;;10439619;28;20259;-78
2023/12/15 02:45:32;;;;;;;2.90;2.70;;;8.50;45.60;;;;;;10439548;28;20228;-78
2023/12/15 02:50:35;;;;;;;3.03;2.83;;;8.50;45.60;;;;;;10439637;28;20228;-78
2023/12/15 02:55:40;;;;;;;3.50;3.30;;;8.50;45.70;;;;;;10440050;28;20324;-79
2023/12/15 03:00:43;;;;;;;2.97;2.77;;;8.40;45.50;;;;;;10438209;28;20224;-79
2023/12/15 03:05:46;;;;;;;3.37;3.17;;;8.40;45.80;;;;;;10437281;28;20233;-78
2023/12/15 03:10:55;;;;;;;3.37;3.17;;;8.40;46.00;;;;;;10438176;28;20286;-78
2023/12/15 03:16:04;;;;;;;3.40;3.10;;;8.40;46.00;;;;;;10437331;28;20755;-78
2023/12/15 03:21:08;;;;;;;3.37;3.17;;;8.40;46.00;;;;;;10435908;28;20231;-78
2023/12/15 03:26:12;;;;;;;3.43;3.23;;;8.40;46.10;;;;;;10436918;28;21036;-78
2023/12/15 03:31:16;;;;;;;3.80;3.50;;;8.40;45.80;;;;;;10436384;28;20231;-80
2023/12/15 03:36:19;;;;;;;3.73;3.43;;;8.50;45.70;;;;;;10437293;28;20240;-78
2023/12/15 03:41:23;;;;;;;3.90;3.60;;;8.50;45.80;;;;;;10437469;28;20239;-78
2023/12/15 03:46:27;;;;;;;4.37;4.07;;;8.50;45.80;;;;;;10436256;28;20254;-79
2023/12/15 03:51:30;;;;;;;4.40;4.10;;;8.50;45.90;;;;;;10436847;28;20229;-78
2023/12/15 03:56:34;;;;;;;4.50;4.20;;;8.50;45.90;;;;;;10436613;28;20237;-78
2023/12/15 04:01:38;;;;;;;4.83;4.07;;;8.50;45.80;;;;;;10435069;28;20765;-78
2023/12/15 04:06:41;;;;;;;4.40;4.10;;;8.60;46.00;;;;;;10437266;28;20809;-78
2023/12/15 04:11:46;;;;;;;5.03;4.63;;;8.60;45.80;;;;;;10435751;28;20233;-78
2023/12/15 04:16:49;;;;;;;5.53;5.10;;;8.60;45.70;;;;;;10436119;28;20244;-78
2023/12/15 04:21:52;;;;;;;6.00;4.67;;;8.60;45.70;;;;;;10435901;28;20304;-78
2023/12/15 04:26:57;;;;;;;5.47;5.07;;;8.60;45.70;;;;;;10421408;28;20294;-78
2023/12/15 04:32:00;;;;;;;5.10;4.70;;;8.50;45.60;;;;;;10437479;28;20647;-78
2023/12/15 04:37:04;;;;;;;5.50;5.10;;;8.50;45.60;;;;;;10436440;28;20245;-78
2023/12/15 04:42:09;;;;;;;5.53;5.10;;;8.50;45.60;;;;;;10397920;28;20241;-78
2023/12/15 04:47:12;;;;;;;6.23;5.73;;;8.50;45.50;;;;;;10404512;28;20776;-78
2023/12/15 04:52:15;;;;;;;6.53;6.00;;;8.50;45.40;;;;;;10442185;28;20356;-78
2023/12/15 04:57:20;;;;;;;6.30;5.80;;;8.40;45.50;;;;;;10443821;28;20675;-78
2023/12/15 05:02:23;;;;;;;6.57;6.07;;;8.40;44.90;;;;;;10443960;28;20229;-78
2023/12/15 05:07:26;;;;;;;6.93;6.33;;;8.30;44.80;;;;;;10441037;28;20232;-77
2023/12/15 05:12:34;;;;;;;7.07;6.47;;;8.30;44.70;;;;;;10442124;28;20232;-78
2023/12/15 05:17:37;;;;;;;6.97;6.37;;;8.20;44.40;;;;;;10442019;28;20255;-78
2023/12/15 05:22:41;;;;;;;6.70;6.13;;;8.10;44.60;;;;;;10442174;28;20244;-77
2023/12/15 05:27:46;;;;;;;6.83;6.23;;;8.10;44.70;;;;;;10438886;28;20249;-78
2023/12/15 05:32:49;;;;;;;7.37;6.00;;;8.00;44.40;;;;;;10438284;28;20236;-78
2023/12/15 05:37:52;;;;;;;6.80;6.30;;;7.90;44.40;;;;;;10437516;28;20326;-78
2023/12/15 05:42:57;;;;;;;7.30;6.60;;;7.90;44.20;;;;;;10439305;28;20229;-78
2023/12/15 05:48:00;;;;;;;7.47;6.77;;;7.80;43.90;;;;;;10438799;28;20231;-78
2023/12/15 05:53:04;;;;;;;7.17;6.47;;;7.80;44.50;;;;;;10440241;28;20672;-78
2023/12/15 05:58:10;;;;;;;7.57;6.87;;;7.70;44.40;;;;;;10435833;28;20336;-79
2023/12/15 06:03:14;;;;;;;7.87;7.17;;;7.70;44.40;;;;;;10436060;28;20708;-78
2023/12/15 06:08:17;;;;;;;8.57;6.80;;;7.70;44.30;;;;;;10442684;28;20233;-77
2023/12/15 06:13:22;;;;;;;7.07;6.47;;;7.60;44.00;;;;;;10444825;28;20251;-79
2023/12/15 06:18:25;;;;;;;7.23;6.53;;;7.60;44.00;;;;;;10448048;28;20247;-80
2023/12/15 06:23:31;;;;;;;6.53;5.93;;;7.60;44.50;;;;;;10451359;28;20232;-80
2023/12/15 06:28:35;;;;;;;6.10;5.60;;;7.60;44.40;;;;;;10444675;28;20510;-81
2023/12/15 06:33:38;;;;;;;7.27;6.57;;;7.60;44.80;;;;;;10442962;28;20256;-80
2023/12/15 06:38:43;;;;;;;6.87;6.27;;;7.60;44.90;;;;;;10448330;28;20333;-80
2023/12/15 06:43:48;;;;;;;7.13;6.43;;;7.70;44.80;;;;;;10449436;28;20229;-80
2023/12/15 06:48:53;;;;;;;9.33;8.03;;;7.70;44.40;;;;;;10441036;28;20751;-80
2023/12/15 06:53:57;;;;;;;13.20;9.67;;;7.80;44.60;;;;;;10446536;28;20221;-80
2023/12/15 06:59:02;;;;;;;9.03;8.13;;;7.80;44.50;;;;;;10447715;28;20253;-80
2023/12/15 07:04:05;;;;;;;8.20;7.40;;;7.80;44.20;;;;;;10447563;28;20221;-80
2023/12/15 07:09:11;;;;;;;9.30;8.40;;;7.80;44.40;;;;;;10449267;28;20742;-80
2023/12/15 07:14:16;;;;;;;7.97;7.17;;;7.80;44.40;;;;;;10444723;28;20643;-80
2023/12/15 07:19:19;;;;;;;15.77;13.97;;;7.90;44.40;;;;;;10446341;28;20228;-80
2023/12/15 07:24:22;;;;;;;10.53;9.53;;;7.90;44.50;;;;;;10449060;28;20237;-80
2023/12/15 07:29:27;;;;;;;12.23;11.13;;;7.90;44.50;;;;;;10448068;28;20313;-80
2023/12/15 07:34:30;;;;;;;10.50;9.50;;;7.90;44.10;;;;;;10438632;28;20715;-80
2023/12/15 07:39:34;;;;;;;11.20;10.20;;;7.80;44.30;;;;;;10442612;28;20711;-79
2023/12/15 07:44:38;;;;;;;10.03;9.13;;;7.80;44.50;;;;;;10454588;28;20248;-80
2023/12/15 07:49:41;;;;;;;9.63;8.73;;;7.80;44.40;;;;;;10454512;28;20307;-80
2023/12/15 07:54:45;;;;;;;8.77;7.90;;;7.80;44.50;;;;;;10455454;28;20323;-80
2023/12/15 07:59:49;;;;;;;9.73;8.83;;;7.70;44.50;;;;;;10441616;28;20308;-78
2023/12/15 08:04:52;;;;;;;9.63;8.73;;;7.70;44.40;;;;;;10444817;28;20613;-78
2023/12/15 08:09:55;;;;;;;11.27;10.27;;;7.70;44.50;;;;;;10450627;28;20252;-78
2023/12/15 08:15:00;;;;;;;11.43;10.23;;;7.50;44.60;;;;;;10443470;28;20755;-79
2023/12/15 08:20:04;;;;;;;11.47;10.37;;;7.40;44.70;;;;;;10453260;28;20236;-78
2023/12/15 08:25:07;;;;;;;10.13;9.23;;;7.40;44.70;;;;;;10437199;28;20237;-80
2023/12/15 08:30:13;;;;;;;9.63;8.73;;;7.30;44.80;;;;;;10427119;28;20235;-78
2023/12/15 08:35:16;;;;;;;10.47;9.47;;;7.20;45.00;;;;;;10432419;28;20234;-79
2023/12/15 08:40:19;;;;;;;10.50;9.50;;;7.20;45.30;;;;;;10426568;28;20225;-80
2023/12/15 08:45:24;;;;;;;9.77;8.83;;;7.20;45.20;;;;;;10436657;28;21082;-79
2023/12/15 08:50:27;;;;;;;10.53;9.50;;;7.20;45.30;;;;;;10435713;28;20240;-77
2023/12/15 08:55:30;;;;;;;9.30;8.40;;;7.20;45.30;;;;;;10433140;28;20741;-77
2023/12/15 09:00:35;;;;;;;9.70;8.80;;;7.20;45.30;;;;;;10431490;28;20248;-76
2023/12/15 09:05:38;;;;;;;10.73;9.73;;;7.20;45.30;;;;;;10431316;28;20243;-77
2023/12/15 09:11:01;;;;;;;10.83;9.83;;;7.20;45.40;;;;;;10428693;28;20236;-77
2023/12/15 09:16:06;;;;;;;10.57;9.50;;;7.30;45.70;;;;;;10433573;28;20397;-77
2023/12/15 09:21:09;;;;;;;11.33;10.27;;;7.30;45.70;;;;;;10429767;28;20877;-77
2023/12/15 09:26:12;;;;;;;10.47;9.37;;;7.30;45.80;;;;;;10435347;28;20237;-77
2023/12/15 09:31:17;;;;;;;11.30;10.23;;;7.30;46.00;;;;;;10426967;28;20229;-77
2023/12/15 09:36:21;;;;;;;11.20;10.17;;;7.30;46.80;;;;;;10428678;28;20243;-77
2023/12/15 09:41:24;;;;;;;10.57;9.57;;;7.30;46.00;;;;;;10436206;28;20232;-80
2023/12/15 09:46:30;;;;;;;13.17;11.87;;;7.40;46.10;;;;;;10431648;28;20239;-77
2023/12/15 09:51:36;;;;;;;10.87;9.77;;;7.40;46.20;;;;;;10429617;28;20259;-78
2023/12/15 09:56:39;;;;;;;10.60;9.60;;;7.30;46.20;;;;;;10431050;28;20258;-77
2023/12/15 10:01:48;;;;;;;9.87;8.97;;;7.30;46.60;;;;;;10422916;28;20821;-74
2023/12/15 10:06:51;;;;;;;9.87;8.93;;;7.40;46.70;;;;;;10430454;28;20233;-77
2023/12/15 10:11:54;;;;;;;9.37;8.47;;;7.50;46.70;;;;;;10433434;28;20228;-77
2023/12/15 10:16:59;;;;;;;10.40;9.40;;;7.50;46.70;;;;;;10426793;28;20618;-77
2023/12/15 10:22:02;;;;;;;9.57;8.63;;;7.60;46.70;;;;;;10423697;28;20225;-77
2023/12/15 10:27:08;;;;;;;10.03;9.03;;;7.70;46.50;;;;;;10428589;28;20241;-77
2023/12/15 10:32:13;;;;;;;10.60;9.53;;;7.80;46.50;;;;;;10430636;28;20233;-78
2023/12/15 10:37:16;;;;;;;10.10;9.10;;;7.80;46.70;;;;;;10424908;28;20240;-77
2023/12/15 10:42:19;;;;;;;9.90;8.90;;;7.90;46.60;;;;;;10421890;28;20704;-76
2023/12/15 10:47:26;;;;;;;10.13;9.13;;;7.90;46.70;;;;;;10429458;28;20233;-76
2023/12/15 10:52:33;;;;;;;10.77;9.67;;;7.90;46.80;;;;;;10428267;28;20290;-78
2023/12/15 10:57:37;;;;;;;10.77;9.77;;;7.90;46.70;;;;;;10429990;28;20229;-77
2023/12/15 11:02:41;;;;;;;9.97;8.97;;;8.00;46.70;;;;;;10420800;28;20224;-78
2023/12/15 11:07:45;;;;;;;9.83;8.83;;;8.00;46.80;;;;;;10423710;28;20237;-77
2023/12/15 11:12:48;;;;;;;9.37;8.47;;;8.10;46.80;;;;;;10431684;28;20235;-76
2023/12/15 11:17:56;;;;;;;9.67;8.30;;;8.10;46.90;;;;;;10431867;28;20244;-76
2023/12/15 11:23:06;;;;;;;9.20;8.30;;;8.10;47.00;;;;;;10431877;28;20229;-75
2023/12/15 11:28:13;;;;;;;9.60;8.70;;;8.10;47.00;;;;;;10427686;28;20232;-76
2023/12/15 11:33:43;;;;;;;9.73;8.83;;;8.20;47.00;;;;;;10429319;28;20300;-76
2023/12/15 11:38:48;;;;;;;8.87;8.07;;;8.20;47.00;;;;;;10427363;28;20307;-76
2023/12/15 11:43:53;;;;;;;8.90;8.00;;;8.20;46.90;;;;;;10428407;28;20785;-75
2023/12/15 11:48:57;;;;;;;9.00;8.10;;;8.30;46.90;;;;;;10430994;28;20718;-76
2023/12/15 11:54:03;;;;;;;7.93;7.13;;;8.40;46.90;;;;;;10435441;28;20727;-76
2023/12/15 11:59:06;;;;;;;8.43;7.67;;;8.40;46.80;;;;;;10431581;28;20601;-76
2023/12/15 12:04:19;;;;;;;9.13;8.23;;;8.40;46.70;;;;;;10441197;28;20241;-77
2023/12/15 12:09:23;;;;;;;9.07;7.83;;;8.50;46.70;;;;;;10438540;28;20260;-78
2023/12/15 12:14:27;;;;;;;9.20;7.70;;;8.50;46.90;;;;;;10434537;28;20226;-79
2023/12/15 12:19:40;;;;;;;7.83;7.10;;;8.50;46.70;;;;;;10440958;28;20291;-79
2023/12/15 12:24:43;;;;;;;9.23;8.30;;;8.70;46.50;;;;;;10443679;28;20340;-81
2023/12/15 12:29:46;;;;;;;8.83;7.87;;;8.80;46.70;;;;;;10446456;28;20266;-80
2023/12/15 12:34:51;;;;;;;9.63;8.27;;;8.80;46.60;;;;;;10438276;28;20287;-82
2023/12/15 12:39:55;;;;;;;7.97;7.27;;;8.80;46.20;;;;;;10430270;28;20248;-81
2023/12/15 12:44:59;;;;;;;8.83;7.93;;;8.90;46.50;;;;;;10431739;28;20241;-80
2023/12/15 12:50:04;;;;;;;7.80;7.10;;;8.90;46.40;;;;;;10433796;28;20236;-81
2023/12/15 12:55:07;;;;;;;9.27;8.30;;;9.00;46.40;;;;;;10436235;28;20256;-81
2023/12/15 13:00:13;;;;;;;8.27;7.53;;;9.10;46.50;;;;;;10436370;28;20236;-81
2023/12/15 13:05:18;;;;;;;8.67;7.87;;;9.10;46.30;;;;;;10427844;28;20229;-81
2023/12/15 13:10:21;;;;;;;8.93;7.97;;;9.20;46.10;;;;;;10426666;28;20366;-81
2023/12/15 13:15:24;;;;;;;8.30;7.60;;;9.20;46.10;;;;;;10428702;28;20239;-82
2023/12/15 13:20:29;;;;;;;8.07;7.37;;;9.20;46.10;;;;;;10436433;28;20320;-82
2023/12/15 13:25:32;;;;;;;7.83;6.97;;;9.20;46.10;;;;;;10441715;28;20294;-77
2023/12/15 13:30:36;;;;;;;8.20;7.40;;;9.20;46.10;;;;;;10442010;28;20233;-79
2023/12/15 13:35:41;;;;;;;7.13;6.53;;;9.20;46.10;;;;;;10444227;28;20731;-77
2023/12/15 13:40:45;;;;;;;7.60;6.90;;;9.20;46.10;;;;;;10429823;28;20307;-77
2023/12/15 13:45:48;;;;;;;6.83;6.23;;;9.30;46.30;;;;;;10430543;28;20253;-76
2023/12/15 13:51:06;;;;;;;7.57;6.87;;;9.30;46.20;;;;;;10426940;28;20239;-75
2023/12/15 13:56:10;;;;;;;7.60;6.90;;;9.30;46.20;;;;;;10427956;28;20703;-75
2023/12/15 14:01:13;;;;;;;8.20;7.40;;;9.30;46.20;;;;;;10440221;28;20244;-77
2023/12/15 14:06:18;;;;;;;7.73;7.03;;;9.40;46.30;;;;;;10444246;28;20225;-80
2023/12/15 14:11:21;;;;;;;8.17;7.47;;;9.40;46.10;;;;;;10450793;28;20221;-79
2023/12/15 14:16:24;;;;;;;7.97;7.27;;;9.40;46.20;;;;;;10457300;28;20239;-79
2023/12/15 14:21:47;;;;;;;8.13;7.43;;;9.40;46.30;;;;;;10444056;28;20569;-80
2023/12/15 14:26:50;;;;;;;10.27;9.27;;;9.40;46.30;;;;;;10446224;28;20656;-79
2023/12/15 14:31:54;;;;;;;9.73;8.77;;;9.40;46.30;;;;;;10444278;28;20262;-79
2023/12/15 14:36:59;;;;;;;8.07;7.30;;;9.40;46.30;;;;;;10443423;28;21188;-78
2023/12/15 14:42:02;;;;;;;8.50;7.70;;;9.50;46.30;;;;;;10443851;28;20319;-79
2023/12/15 14:47:06;;;;;;;10.03;9.03;;;9.50;46.30;;;;;;10433398;28;20248;-78
2023/12/15 14:52:11;;;;;;;9.50;8.57;;;9.50;46.40;;;;;;10444145;28;20290;-79
2023/12/15 14:57:14;;;;;;;7.90;7.10;;;9.40;46.30;;;;;;10446849;28;20699;-80
2023/12/15 15:02:17;;;;;;;8.17;6.90;;;9.50;46.30;;;;;;10440298;28;20233;-77
2023/12/15 15:07:22;;;;;;;8.97;7.17;;;9.50;46.30;;;;;;10442195;28;20232;-82
2023/12/15 15:12:25;;;;;;;8.13;7.43;;;9.40;46.20;;;;;;10442457;28;20325;-80
2023/12/15 15:17:28;;;;;;;8.57;7.77;;;9.50;46.40;;;;;;10435693;28;20236;-81
2023/12/15 15:22:33;;;;;;;7.43;6.73;;;9.50;46.30;;;;;;10438087;28;20627;-81
2023/12/15 15:27:37;;;;;;;7.73;7.10;;;9.50;46.10;;;;;;10440028;28;20224;-80
2023/12/15 15:32:40;;;;;;;7.60;6.80;;;9.50;46.20;;;;;;10440304;28;20309;-81
2023/12/15 15:37:45;;;;;;;7.90;7.20;;;9.40;46.10;;;;;;10445588;28;20224;-86
2023/12/15 15:42:51;;;;;;;9.67;8.67;;;9.50;46.10;;;;;;10449270;28;20229;-84
2023/12/15 15:47:55;;;;;;;9.53;8.63;;;9.60;46.10;;;;;;10447819;28;20237;-84
2023/12/15 15:53:05;;;;;;;8.90;8.10;;;9.60;46.10;;;;;;10454319;28;20255;-85
2023/12/15 15:58:09;;;;;;;10.23;9.33;;;9.50;45.80;;;;;;10453893;28;20260;-87
2023/12/15 16:03:12;;;;;;;10.37;9.30;;;9.50;46.00;;;;;;10451322;28;20235;-84
2023/12/15 16:08:17;;;;;;;8.97;8.07;;;9.60;46.00;;;;;;10438402;28;20295;-83
2023/12/15 16:13:22;;;;;;;10.00;9.00;;;9.60;46.00;;;;;;10438745;28;20311;-82
2023/12/15 16:18:26;;;;;;;9.00;8.10;;;9.60;46.00;;;;;;10438089;28;20300;-83
2023/12/15 16:23:30;;;;;;;7.90;7.20;;;9.60;45.90;;;;;;10445767;28;20231;-82
2023/12/15 16:28:33;;;;;;;7.47;6.77;;;9.60;45.80;;;;;;10436411;28;20231;-83
2023/12/15 16:33:36;;;;;;;7.77;7.13;;;9.60;45.90;;;;;;10438971;28;20229;-82
2023/12/15 16:38:41;;;;;;;9.10;8.20;;;9.60;45.90;;;;;;10434023;28;20233;-83
2023/12/15 16:43:45;;;;;;;7.93;7.23;;;9.60;45.90;;;;;;10437359;28;20317;-83
2023/12/15 16:48:52;;;;;;;7.67;6.97;;;9.60;46.00;;;;;;10440557;28;20922;-82
2023/12/15 16:53:58;;;;;;;8.80;8.00;;;9.60;45.90;;;;;;10452654;28;20225;-82
2023/12/15 16:59:01;;;;;;;10.40;9.40;;;9.60;46.00;;;;;;10445929;28;20230;-83
2023/12/15 17:04:05;;;;;;;12.40;11.10;;;9.50;46.00;;;;;;10451638;28;20245;-82
2023/12/15 17:09:09;;;;;;;10.60;9.60;;;9.50;46.10;;;;;;10452988;28;20238;-82
2023/12/15 17:14:13;;;;;;;10.33;9.33;;;9.50;46.10;;;;;;10448571;28;20305;-84
2023/12/15 17:19:17;;;;;;;12.80;11.43;;;9.50;46.10;;;;;;10447696;28;20229;-84
2023/12/15 17:24:21;;;;;;;11.07;10.00;;;9.50;46.20;;;;;;10450746;28;20243;-82
2023/12/15 17:29:25;;;;;;;13.27;11.97;;;9.40;46.20;;;;;;10458302;28;20240;-81
2023/12/15 17:34:41;;;;;;;11.67;10.33;;;9.20;46.10;;;;;;10444845;28;20735;-78
2023/12/15 17:39:46;;;;;;;11.37;10.17;;;9.40;46.30;;;;;;10443769;28;20232;-78
2023/12/15 17:44:49;;;;;;;14.93;13.37;;;9.30;46.20;;;;;;10450436;28;20898;-78
2023/12/15 17:49:53;;;;;;;10.70;9.70;;;9.40;46.30;;;;;;10448480;28;20742;-77
2023/12/15 17:54:57;;;;;;;9.60;8.70;;;9.40;46.30;;;;;;10441361;28;20304;-78
2023/12/15 18:00:01;;;;;;;9.33;8.50;;;9.30;46.20;;;;;;10449117;28;20339;-78
2023/12/15 18:05:04;;;;;;;9.67;8.77;;;9.40;46.30;;;;;;10444699;28;20888;-78
2023/12/15 18:10:10;;;;;;;8.20;7.40;;;9.40;46.30;;;;;;10450957;28;20232;-80
2023/12/15 18:15:14;;;;;;;9.40;8.40;;;9.40;46.30;;;;;;10451221;28;20245;-80
2023/12/15 18:20:18;;;;;;;10.00;9.00;;;9.40;46.30;;;;;;10450751;28;20237;-81
2023/12/15 18:25:23;;;;;;;10.03;8.80;;;9.30;46.30;;;;;;10446310;28;20314;-75
2023/12/15 18:30:26;;;;;;;9.60;8.60;;;9.40;46.30;;;;;;10437364;28;20578;-75
2023/12/15 18:35:29;;;;;;;9.33;8.43;;;9.40;46.30;;;;;;10440315;28;20236;-76
2023/12/15 18:40:34;;;;;;;10.77;9.13;;;9.40;46.30;;;;;;10440814;28;20229;-77
2023/12/15 18:45:37;;;;;;;10.30;9.20;;;9.40;46.50;;;;;;10447757;28;20316;-78
2023/12/15 18:50:40;;;;;;;9.87;8.50;;;9.40;46.40;;;;;;10437025;28;20248;-83
2023/12/15 18:55:46;;;;;;;9.80;8.80;;;9.30;46.30;;;;;;10436627;28;20332;-82
2023/12/15 19:00:49;;;;;;;9.63;8.30;;;9.40;46.30;;;;;;10438593;28;20279;-84
2023/12/15 19:05:52;;;;;;;10.30;8.60;;;9.40;46.30;;;;;;10434414;28;20225;-83
2023/12/15 19:10:57;;;;;;;8.20;7.40;;;9.40;46.30;;;;;;10439245;28;20231;-83
2023/12/15 19:16:00;;;;;;;8.70;8.00;;;9.40;46.50;;;;;;10437321;28;21057;-84
2023/12/15 19:21:03;;;;;;;8.87;7.97;;;9.30;46.60;;;;;;10438450;28;20256;-83
2023/12/15 19:26:08;;;;;;;8.40;7.60;;;9.30;46.70;;;;;;10431684;28;20656;-81
2023/12/15 19:31:12;;;;;;;9.27;8.27;;;9.30;47.00;;;;;;10403191;28;20236;-77
2023/12/15 19:36:15;;;;;;;10.87;9.33;;;9.30;47.00;;;;;;10405048;28;20241;-81
2023/12/15 19:41:21;;;;;;;12.87;10.73;;;9.30;47.00;;;;;;10407417;28;20795;-80
2023/12/15 19:46:27;;;;;;;9.47;8.47;;;9.30;47.10;;;;;;10436310;28;20237;-77
2023/12/15 19:51:31;;;;;;;9.77;8.77;;;9.30;47.00;;;;;;10445314;28;20259;-79
2023/12/15 19:56:38;;;;;;;10.03;9.13;;;9.20;47.00;;;;;;10430807;28;20233;-82
2023/12/15 20:01:42;;;;;;;10.47;9.47;;;9.20;47.20;;;;;;10429207;28;20229;-79
2023/12/15 20:06:46;;;;;;;8.80;7.70;;;9.20;47.20;;;;;;10437233;28;20798;-78
2023/12/15 20:11:51;;;;;;;7.30;6.67;;;9.20;47.10;;;;;;10443503;28;20237;-78
2023/12/15 20:16:54;;;;;;;5.73;5.10;;;9.20;47.10;;;;;;10441478;28;20237;-78
2023/12/15 20:21:58;;;;;;;5.30;4.90;;;9.20;46.90;;;;;;10439146;28;20371;-78
2023/12/15 20:27:09;;;;;;;5.50;5.00;;;9.20;47.10;;;;;;10426905;28;20644;-78
2023/12/15 20:32:12;;;;;;;5.40;4.90;;;9.20;47.30;;;;;;10440235;28;20831;-78
2023/12/15 20:37:17;;;;;;;5.07;4.67;;;9.20;47.20;;;;;;10435496;28;20320;-78
2023/12/15 20:42:22;;;;;;;5.87;5.37;;;9.20;47.20;;;;;;10443815;28;20756;-78
2023/12/15 20:47:27;;;;;;;6.57;5.97;;;9.30;47.40;;;;;;10428012;28;20605;-78
2023/12/15 20:52:32;;;;;;;7.27;6.63;;;9.30;47.20;;;;;;10412112;28;20230;-79
2023/12/15 20:57:37;;;;;;;7.33;6.73;;;9.40;47.30;;;;;;10418813;28;20238;-77
2023/12/15 21:02:41;;;;;;;7.47;6.77;;;9.40;47.30;;;;;;10433328;28;20316;-77
2023/12/15 21:07:46;;;;;;;9.20;8.20;;;9.40;47.10;;;;;;10448667;28;20781;-77
2023/12/15 21:12:51;;;;;;;8.20;7.50;;;9.40;47.70;;;;;;10446273;28;20256;-78
2023/12/15 21:17:54;;;;;;;7.80;7.00;;;9.40;47.20;;;;;;10446112;28;20224;-76
2023/12/15 21:22:57;;;;;;;8.33;7.53;;;9.40;47.20;;;;;;10451612;28;20240;-78
2023/12/15 21:28:02;;;;;;;8.73;8.03;;;9.40;47.30;;;;;;10450768;28;20332;-77
2023/12/15 21:33:07;;;;;;;9.30;8.50;;;9.40;47.30;;;;;;10450009;28;20283;-77
2023/12/15 21:38:10;;;;;;;8.87;8.07;;;9.40;47.20;;;;;;10451201;28;20251;-79
2023/12/15 21:43:16;;;;;;;9.10;8.20;;;9.40;47.30;;;;;;10451436;28;20637;-78
2023/12/15 21:48:19;;;;;;;9.10;8.30;;;9.40;47.40;;;;;;10448072;28;20473;-78
2023/12/15 21:53:24;;;;;;;10.17;9.17;;;9.40;47.20;;;;;;10439718;28;20275;-78
2023/12/15 21:58:31;;;;;;;10.50;9.40;;;9.40;47.30;;;;;;10445600;28;20601;-78
2023/12/15 22:03:34;;;;;;;9.33;8.20;;;9.30;47.40;;;;;;10443509;28;20237;-78
2023/12/15 22:08:38;;;;;;;8.97;8.27;;;9.30;47.20;;;;;;10446721;28;20287;-77
2023/12/15 22:13:43;;;;;;;9.23;8.33;;;9.30;47.30;;;;;;10437733;28;20229;-78
2023/12/15 22:18:47;;;;;;;9.63;8.73;;;9.20;47.50;;;;;;10443619;28;20233;-78
2023/12/15 22:23:52;;;;;;;9.20;8.30;;;9.20;47.50;;;;;;10445490;28;20229;-78
2023/12/15 22:28:57;;;;;;;9.03;8.17;;;9.20;47.40;;;;;;10444369;28;20338;-78
2023/12/15 22:34:01;;;;;;;8.13;7.43;;;9.20;47.70;;;;;;10443132;28;20831;-78
2023/12/15 22:39:06;;;;;;;9.13;8.33;;;9.20;47.60;;;;;;10444672;28;20270;-78
2023/12/15 22:44:10;;;;;;;11.70;10.60;;;9.20;47.60;;;;;;10446440;28;20796;-78
2023/12/15 22:49:14;;;;;;;8.80;8.10;;;9.20;47.80;;;;;;10446750;28;20227;-78
2023/12/15 22:54:17;;;;;;;9.07;8.27;;;9.20;47.70;;;;;;10432759;28;20229;-78
2023/12/15 22:59:21;;;;;;;8.37;7.60;;;9.20;47.60;;;;;;10446194;28;20225;-78
2023/12/15 23:04:26;;;;;;;8.53;7.83;;;9.30;47.70;;;;;;10439720;28;20233;-78
2023/12/15 23:09:29;;;;;;;9.07;8.20;;;9.30;47.50;;;;;;10442603;28;20231;-78
2023/12/15 23:14:34;;;;;;;7.30;6.70;;;9.30;47.50;;;;;;10440066;28;20232;-78
2023/12/15 23:19:41;;;;;;;8.33;7.53;;;9.30;47.60;;;;;;10430912;28;20264;-78
2023/12/15 23:24:45;;;;;;;7.73;7.03;;;9.30;47.40;;;;;;10441285;28;20237;-78
2023/12/15 23:29:49;;;;;;;9.00;8.20;;;9.20;47.40;;;;;;10442248;28;20232;-78
2023/12/15 23:34:53;;;;;;;8.03;7.33;;;9.20;47.50;;;;;;10432538;28;20768;-78
2023/12/15 23:39:56;;;;;;;8.07;7.37;;;9.20;47.50;;;;;;10441496;28;20233;-78
2023/12/15 23:45:01;;;;;;;8.73;7.93;;;9.20;47.60;;;;;;10443399;28;20236;-78
2023/12/15 23:50:05;;;;;;;8.87;8.07;;;9.20;47.70;;;;;;10441805;28;20248;-78
2023/12/15 23:55:09;;;;;;;8.70;8.00;;;9.20;47.50;;;;;;10445089;28;20280;-78
